Drummond Island, MI

6:43 AM EDT on July 26, 2017 (GMT -0400)
Drummond Island

Weather History for KDRM - November, 2012

Change the Weather History Date:

Wednesday, November 14, 2012

  Actual Average (KCIU) Record (KCIU)
Temperature  
Mean Temperature 35 °F -  
Max Temperature 39 °F 40 °F 57 °F (2016)
Min Temperature 31 °F 26 °F 1 °F (1996)
Degree Days  
Heating Degree Days 30    
Moisture  
Dew Point 28 °F    
Average Humidity 74    
Maximum Humidity 84    
Minimum Humidity 62    
Precipitation  
Precipitation 0.00 in - - ()
Sea Level Pressure  
Sea Level Pressure 30.46 in    
Wind  
Wind Speed 7 mph (South)    
Max Wind Speed 13 mph    
Max Gust Speed 21 mph    
Visibility 10 miles    
Events      
Averages and records for this station are not official NWS values.
T = Trace of Precipitation, MM = Missing Value Source: NWS Daily Summary

Daily Weather History Graph

Daily Weather History Graph

Search for Another Location

Airport or City:

Trip Planner

Search our weather history database for the weather conditions in past years. The results will help you decide how hot, cold, wet, or windy it might be!

Date:

Astronomy

Nov. 14, 2012 Rise Set
Actual Time 7:34 AM EST 5:03 PM EST
Civil Twilight 7:02 AM EST 5:36 PM EST
Nautical Twilight 6:26 AM EST 6:12 PM EST
Astronomical Twilight 5:50 AM EST 6:47 PM EST
Moon 8:26 AM EST (11/14) 5:47 PM EST (11/14)
Length of Visible Light 10h 33m
Length of Day
9h 29m
New Moon, 1% of the Moon is Illuminated
Nov 14
New Moon
Nov 20
First Quarter
Nov 28
Full
Dec 6
Last Quarter
Dec 13
New

Hourly Weather History & Observations

Time (EST) Temp. Windchill Dew Point Humidity Pressure Visibility Wind Dir Wind Speed Gust Speed Precip Events Conditions
12:16 AM 32.0 °F 27.5 °F 23.9 °F 72% 30.47 in 10.0 mi SSW 4.6 mph - N/A   Clear
12:36 AM 32.4 °F 29.1 °F 23.9 °F 71% 30.47 in 10.0 mi SW 3.5 mph - N/A   Clear
12:56 AM 31.6 °F 28.3 °F 23.7 °F 73% 30.47 in 10.0 mi South 3.5 mph - N/A   Clear
1:16 AM 31.5 °F 28.1 °F 23.7 °F 73% 30.47 in 10.0 mi South 3.5 mph - N/A   Clear
1:35 AM 31.8 °F 27.3 °F 23.9 °F 73% 30.47 in 10.0 mi SSW 4.6 mph - N/A   Clear
1:56 AM 32.2 °F 27.7 °F 24.4 °F 73% 30.47 in 10.0 mi South 4.6 mph - N/A   Clear
2:16 AM 32.4 °F 26.9 °F 24.3 °F 72% 30.47 in 10.0 mi SSW 5.8 mph - N/A   Clear
2:36 AM 32.0 °F 26.4 °F 24.6 °F 74% 30.47 in 10.0 mi SSW 5.8 mph - N/A   Clear
2:56 AM 32.5 °F 27.1 °F 25.7 °F 76% 30.48 in 10.0 mi SSW 5.8 mph - N/A   Clear
3:16 AM 32.5 °F 26.2 °F 26.2 °F 78% 30.48 in 10.0 mi South 6.9 mph - N/A   Clear
3:36 AM 32.9 °F 26.7 °F 26.4 °F 77% 30.48 in 10.0 mi SSW 6.9 mph - N/A   Clear
3:56 AM 32.9 °F 26.7 °F 26.6 °F 78% 30.48 in 10.0 mi SSW 6.9 mph - N/A   Clear
4:16 AM 33.3 °F 27.9 °F 27.0 °F 78% 30.48 in 10.0 mi South 5.8 mph - N/A   Clear
4:36 AM 33.4 °F 28.1 °F 27.5 °F 79% 30.48 in 10.0 mi SSW 5.8 mph - N/A   Clear
4:56 AM 32.4 °F 26.9 °F 27.0 °F 80% 30.48 in 10.0 mi SSW 5.8 mph - N/A   Clear
5:16 AM 33.8 °F 27.0 °F 27.3 °F 77% 30.48 in 10.0 mi SSW 8.1 mph - N/A   Clear
5:36 AM 33.8 °F 27.7 °F 27.0 °F 76% 30.48 in 10.0 mi SSW 6.9 mph - N/A   Clear
5:56 AM 33.8 °F 27.7 °F 26.6 °F 75% 30.49 in 10.0 mi SSW 6.9 mph - N/A   Clear
6:16 AM 33.8 °F 28.6 °F 27.0 °F 76% 30.49 in 10.0 mi SSW 5.8 mph - N/A   Clear
6:36 AM 34.0 °F 28.8 °F 28.2 °F 79% 30.49 in 10.0 mi South 5.8 mph - N/A   Clear
6:56 AM 34.2 °F 29.0 °F 29.1 °F 82% 30.49 in 10.0 mi SSW 5.8 mph - N/A   Clear
7:16 AM 34.2 °F 27.5 °F 29.7 °F 84% 30.49 in 10.0 mi SSW 8.1 mph - N/A   Scattered Clouds
7:36 AM 34.7 °F 29.6 °F 30.2 °F 84% 30.49 in 10.0 mi South 5.8 mph - N/A   Mostly Cloudy
7:56 AM 34.9 °F 29.9 °F 30.2 °F 83% 30.49 in 10.0 mi SSW 5.8 mph - N/A   Scattered Clouds
8:16 AM 35.4 °F 30.5 °F 30.4 °F 82% 30.49 in 10.0 mi South 5.8 mph - N/A   Mostly Cloudy
8:35 AM 35.8 °F 30.1 °F 30.6 °F 81% 30.49 in 10.0 mi South 6.9 mph - N/A   Mostly Cloudy
8:56 AM 36.0 °F 29.6 °F 30.7 °F 81% 30.49 in 10.0 mi South 8.1 mph - N/A   Scattered Clouds
9:16 AM 36.5 °F 30.3 °F 30.9 °F 80% 30.50 in 10.0 mi South 8.1 mph - N/A   Clear
9:35 AM 36.5 °F 29.2 °F 30.9 °F 80% 30.50 in 10.0 mi South 10.4 mph 16.1 mph N/A   Clear
9:56 AM 36.9 °F 29.6 °F 30.9 °F 79% 30.50 in 10.0 mi SSW 10.4 mph 17.3 mph N/A   Mostly Cloudy
10:15 AM 37.8 °F 29.8 °F 31.5 °F 78% 30.50 in 10.0 mi South 12.7 mph 20.7 mph N/A   Mostly Cloudy
10:36 AM 38.3 °F 30.9 °F 31.8 °F 77% 30.51 in 10.0 mi South 11.5 mph 18.4 mph N/A   Scattered Clouds
10:56 AM 38.7 °F 30.9 °F 32.0 °F 77% 30.51 in 10.0 mi SSW 12.7 mph 16.1 mph N/A   Mostly Cloudy
11:15 AM 38.3 °F 31.4 °F 32.0 °F 78% 30.51 in 10.0 mi SSW 10.4 mph 17.3 mph N/A   Mostly Cloudy
11:36 AM 38.3 °F 30.5 °F 31.6 °F 77% 30.50 in 10.0 mi South 12.7 mph 18.4 mph N/A   Overcast
11:56 AM 37.9 °F 31.5 °F 31.5 °F 77% 30.50 in 10.0 mi SSW 9.2 mph 16.1 mph N/A   Overcast
12:16 PM 38.5 °F 32.1 °F 31.8 °F 77% 30.49 in 10.0 mi South 9.2 mph - N/A   Overcast
12:36 PM 38.8 °F 31.6 °F 31.1 °F 74% 30.48 in 10.0 mi SSW 11.5 mph 17.3 mph N/A   Overcast
12:56 PM 38.8 °F 32.1 °F 30.9 °F 73% 30.47 in 10.0 mi South 10.4 mph 16.1 mph N/A   Overcast
1:16 PM 38.8 °F 32.1 °F 30.7 °F 73% 30.47 in 10.0 mi South 10.4 mph 16.1 mph N/A   Overcast
1:36 PM 38.8 °F 32.1 °F 30.6 °F 72% 30.47 in 10.0 mi South 10.4 mph 16.1 mph N/A   Overcast
1:56 PM 38.8 °F 32.6 °F 30.2 °F 71% 30.46 in 10.0 mi South 9.2 mph 16.1 mph N/A   Overcast
2:16 PM 39.0 °F 32.3 °F 30.2 °F 71% 30.46 in 10.0 mi South 10.4 mph 16.1 mph N/A   Overcast
2:36 PM 39.4 °F 32.7 °F 30.2 °F 70% 30.45 in 10.0 mi South 10.4 mph 16.1 mph N/A   Scattered Clouds
2:55 PM 39.2 °F 34.2 °F 29.7 °F 69% 30.45 in 10.0 mi South 6.9 mph - N/A   Mostly Cloudy
3:16 PM 39.2 °F 33.0 °F 29.3 °F 68% 30.45 in 10.0 mi South 9.2 mph - N/A   Mostly Cloudy
3:36 PM 38.8 °F 33.2 °F 29.1 °F 68% 30.45 in 10.0 mi South 8.1 mph - N/A   Overcast
3:56 PM 38.8 °F 33.8 °F 29.1 °F 68% 30.44 in 10.0 mi South 6.9 mph - N/A   Overcast
4:16 PM 38.8 °F 33.8 °F 28.4 °F 66% 30.44 in 10.0 mi South 6.9 mph - N/A   Overcast
4:35 PM 38.7 °F 33.6 °F 28.9 °F 68% 30.44 in 10.0 mi SSE 6.9 mph - N/A   Overcast
4:56 PM 38.5 °F 34.1 °F 28.9 °F 69% 30.43 in 10.0 mi South 5.8 mph - N/A   Overcast
5:16 PM 38.1 °F 33.7 °F 28.0 °F 67% 30.43 in 10.0 mi South 5.8 mph - N/A   Mostly Cloudy
5:36 PM 37.8 °F 34.2 °F 27.5 °F 67% 30.43 in 10.0 mi SSE 4.6 mph - N/A   Scattered Clouds
5:56 PM 37.8 °F 33.3 °F 27.1 °F 66% 30.42 in 10.0 mi South 5.8 mph - N/A   Scattered Clouds
6:16 PM 37.8 °F 33.3 °F 26.4 °F 64% 30.42 in 10.0 mi South 5.8 mph - N/A   Scattered Clouds
6:36 PM 37.9 °F 33.5 °F 26.2 °F 63% 30.42 in 10.0 mi SSE 5.8 mph - N/A   Scattered Clouds
6:56 PM 37.8 °F 33.3 °F 26.1 °F 63% 30.41 in 10.0 mi SSE 5.8 mph - N/A   Scattered Clouds
7:16 PM 38.1 °F 32.9 °F 26.2 °F 62% 30.41 in 10.0 mi SSE 6.9 mph - N/A   Clear
7:36 PM 38.1 °F 32.3 °F 27.1 °F 65% 30.41 in 10.0 mi South 8.1 mph - N/A   Scattered Clouds
7:56 PM 37.9 °F 31.5 °F 27.5 °F 66% 30.41 in 10.0 mi South 9.2 mph - N/A   Clear
8:15 PM 37.8 °F 34.2 °F 27.5 °F 67% 30.41 in 10.0 mi South 4.6 mph - N/A   Scattered Clouds
8:36 PM 37.6 °F 31.6 °F 28.4 °F 69% 30.41 in 10.0 mi South 8.1 mph - N/A   Mostly Cloudy
8:56 PM 37.4 °F 32.1 °F 27.9 °F 68% 30.41 in 10.0 mi South 6.9 mph - N/A   Overcast
9:36 PM 37.4 °F 31.4 °F 28.0 °F 69% 30.41 in 10.0 mi South 8.1 mph - N/A   Mostly Cloudy
9:56 PM 36.7 °F 31.2 °F 28.4 °F 72% 30.40 in 10.0 mi South 6.9 mph - N/A   Scattered Clouds
10:16 PM 36.5 °F 31.8 °F 28.4 °F 72% 30.40 in 10.0 mi South 5.8 mph - N/A   Clear
10:36 PM 36.1 °F 33.5 °F 28.8 °F 75% 30.40 in 10.0 mi South 3.5 mph - N/A   Clear
10:56 PM 36.0 °F 32.1 °F 29.3 °F 77% 30.40 in 10.0 mi South 4.6 mph - N/A   Clear
11:16 PM 36.5 °F 30.3 °F 29.8 °F 77% 30.39 in 10.0 mi South 8.1 mph - N/A   Clear
11:36 PM 36.1 °F 30.6 °F 29.8 °F 78% 30.39 in 10.0 mi South 6.9 mph - N/A   Clear
11:56 PM 36.1 °F 31.4 °F 29.8 °F 78% 30.39 in 10.0 mi South 5.8 mph - N/A   Clear